Accueil
METAR-TAF:

METAR-TAF

Aéroports :

Paganella, Italie

latitude: 46-09N, longitude: 011-02E, altitude: 2125 m

Observation

Le bulletin a été fait il y a 21 minutes, à 23:55 UTC
Vent 14 kt de ouest
Température -2°C
Humidité 100%
Pression 1011 hPa
Visibilité: 0300 m
neige faible, brouillard givrant

METAR: LIVP 292355Z 27014KT 0300 -SN FZFG VV/// M02/M02 Q1011 RMK MON INVIS VAL INVIS VIS MIN 0300

Heure: 02:16 (00:16 UTC)


TAF: absent

Observations et prévisions météorologiques de plus de 4000 aéroports (messages METAR et TAF).

Les stations disponibles sont représentées par des disques jaunes et rouges sur la carte.

Passer la souris dessus pour voir le nom de la station.

Cliquer dessus pour voir les observations et prévisions météorologiques.

Pour changer de carte: cliquez sur les boutons verts avec une croix noire pour zoomer, sur le bouton vert avec un tiret pour effectuer un zoom arrière, ou sur les flèches vertes pour les cartes adjacentes.


METAR-TAF: